sensor_id;sensor_type;location;lat;lon;timestamp;temperature;humidity
33095;DHT22;19459;53.044;8.910;2023-07-13T00:01:51;16.20;99.90
33095;DHT22;19459;53.044;8.910;2023-07-13T00:04:19;16.20;99.90
33095;DHT22;19459;53.044;8.910;2023-07-13T00:06:48;16.20;99.90
33095;DHT22;19459;53.044;8.910;2023-07-13T00:09:15;16.20;99.90
33095;DHT22;19459;53.044;8.910;2023-07-13T00:11:42;16.10;99.90
33095;DHT22;19459;53.044;8.910;2023-07-13T00:14:09;16.10;99.90
33095;DHT22;19459;53.044;8.910;2023-07-13T00:16:37;16.00;99.90
33095;DHT22;19459;53.044;8.910;2023-07-13T00:19:06;16.00;99.90
33095;DHT22;19459;53.044;8.910;2023-07-13T00:21:32;16.00;99.90
33095;DHT22;19459;53.044;8.910;2023-07-13T00:23:57;16.00;99.90
33095;DHT22;19459;53.044;8.910;2023-07-13T00:26:23;16.00;99.90
33095;DHT22;19459;53.044;8.910;2023-07-13T00:28:49;16.00;99.90
33095;DHT22;19459;53.044;8.910;2023-07-13T00:31:15;15.90;99.90
33095;DHT22;19459;53.044;8.910;2023-07-13T00:33:42;16.00;99.90
33095;DHT22;19459;53.044;8.910;2023-07-13T00:36:09;16.00;99.90
33095;DHT22;19459;53.044;8.910;2023-07-13T00:38:35;16.00;99.90
33095;DHT22;19459;53.044;8.910;2023-07-13T00:41:02;16.00;99.90
33095;DHT22;19459;53.044;8.910;2023-07-13T00:43:30;16.00;99.90
33095;DHT22;19459;53.044;8.910;2023-07-13T00:48:27;16.00;99.90
33095;DHT22;19459;53.044;8.910;2023-07-13T00:51:00;16.00;99.90
33095;DHT22;19459;53.044;8.910;2023-07-13T00:53:28;16.00;99.90
33095;DHT22;19459;53.044;8.910;2023-07-13T00:55:56;16.00;99.90
33095;DHT22;19459;53.044;8.910;2023-07-13T00:58:24;15.90;99.90
33095;DHT22;19459;53.044;8.910;2023-07-13T01:00:51;15.90;99.90
33095;DHT22;19459;53.044;8.910;2023-07-13T01:03:18;15.80;99.90
33095;DHT22;19459;53.044;8.910;2023-07-13T01:05:47;15.70;99.90
33095;DHT22;19459;53.044;8.910;2023-07-13T01:08:14;15.70;99.90
33095;DHT22;19459;53.044;8.910;2023-07-13T01:10:41;15.70;99.90
33095;DHT22;19459;53.044;8.910;2023-07-13T01:13:15;15.70;99.90
33095;DHT22;19459;53.044;8.910;2023-07-13T01:15:46;15.70;99.90
33095;DHT22;19459;53.044;8.910;2023-07-13T01:18:22;15.70;99.90
33095;DHT22;19459;53.044;8.910;2023-07-13T01:21:01;15.60;99.90
33095;DHT22;19459;53.044;8.910;2023-07-13T01:23:29;15.70;99.90
33095;DHT22;19459;53.044;8.910;2023-07-13T01:25:55;15.60;99.90
33095;DHT22;19459;53.044;8.910;2023-07-13T01:28:24;15.60;99.90
33095;DHT22;19459;53.044;8.910;2023-07-13T01:30:53;15.60;99.90
33095;DHT22;19459;53.044;8.910;2023-07-13T01:33:20;15.60;99.90
33095;DHT22;19459;53.044;8.910;2023-07-13T01:35:46;15.60;99.90
33095;DHT22;19459;53.044;8.910;2023-07-13T01:38:18;15.60;99.90
33095;DHT22;19459;53.044;8.910;2023-07-13T01:40:45;15.60;99.90
33095;DHT22;19459;53.044;8.910;2023-07-13T01:43:11;15.50;99.90
33095;DHT22;19459;53.044;8.910;2023-07-13T01:45:38;15.50;99.90
33095;DHT22;19459;53.044;8.910;2023-07-13T01:48:04;15.40;99.90
33095;DHT22;19459;53.044;8.910;2023-07-13T01:50:32;15.50;99.90
33095;DHT22;19459;53.044;8.910;2023-07-13T01:52:59;15.40;99.90
33095;DHT22;19459;53.044;8.910;2023-07-13T01:55:25;15.40;99.90
33095;DHT22;19459;53.044;8.910;2023-07-13T01:57:50;15.40;99.90
33095;DHT22;19459;53.044;8.910;2023-07-13T02:00:17;15.40;99.90
33095;DHT22;19459;53.044;8.910;2023-07-13T02:02:43;15.50;99.90
33095;DHT22;19459;53.044;8.910;2023-07-13T02:05:09;15.50;99.90
33095;DHT22;19459;53.044;8.910;2023-07-13T02:07:35;15.40;99.90
33095;DHT22;19459;53.044;8.910;2023-07-13T02:10:02;15.50;99.90
33095;DHT22;19459;53.044;8.910;2023-07-13T02:12:28;15.50;99.90
33095;DHT22;19459;53.044;8.910;2023-07-13T02:14:53;15.50;99.90
33095;DHT22;19459;53.044;8.910;2023-07-13T02:17:19;15.50;99.90
33095;DHT22;19459;53.044;8.910;2023-07-13T02:19:45;15.50;99.90
33095;DHT22;19459;53.044;8.910;2023-07-13T02:22:11;15.50;99.90
33095;DHT22;19459;53.044;8.910;2023-07-13T02:24:37;15.50;99.90
33095;DHT22;19459;53.044;8.910;2023-07-13T02:27:03;15.40;99.90
33095;DHT22;19459;53.044;8.910;2023-07-13T02:29:29;15.30;99.90
33095;DHT22;19459;53.044;8.910;2023-07-13T02:31:55;15.30;99.90
33095;DHT22;19459;53.044;8.910;2023-07-13T02:34:21;15.20;99.90
33095;DHT22;19459;53.044;8.910;2023-07-13T02:36:47;15.10;99.90
33095;DHT22;19459;53.044;8.910;2023-07-13T02:39:13;15.10;99.90
33095;DHT22;19459;53.044;8.910;2023-07-13T02:41:39;15.10;99.90
33095;DHT22;19459;53.044;8.910;2023-07-13T02:44:05;15.10;99.90
33095;DHT22;19459;53.044;8.910;2023-07-13T02:46:32;15.00;99.90
33095;DHT22;19459;53.044;8.910;2023-07-13T02:48:59;15.00;99.90
33095;DHT22;19459;53.044;8.910;2023-07-13T02:51:25;14.90;99.90
33095;DHT22;19459;53.044;8.910;2023-07-13T02:53:51;14.90;99.90
33095;DHT22;19459;53.044;8.910;2023-07-13T02:56:21;14.90;99.90
33095;DHT22;19459;53.044;8.910;2023-07-13T02:58:49;14.90;99.90
33095;DHT22;19459;53.044;8.910;2023-07-13T03:01:15;14.80;99.90
33095;DHT22;19459;53.044;8.910;2023-07-13T03:03:43;14.80;99.90
33095;DHT22;19459;53.044;8.910;2023-07-13T03:06:09;14.80;99.90
33095;DHT22;19459;53.044;8.910;2023-07-13T03:08:34;14.80;99.90
33095;DHT22;19459;53.044;8.910;2023-07-13T03:11:09;14.80;99.90
33095;DHT22;19459;53.044;8.910;2023-07-13T03:13:37;14.80;99.90
33095;DHT22;19459;53.044;8.910;2023-07-13T03:16:04;14.90;99.90
33095;DHT22;19459;53.044;8.910;2023-07-13T03:18:31;14.90;99.90
33095;DHT22;19459;53.044;8.910;2023-07-13T03:20:57;14.90;99.90
33095;DHT22;19459;53.044;8.910;2023-07-13T03:23:23;14.90;99.90
33095;DHT22;19459;53.044;8.910;2023-07-13T03:25:50;14.80;99.90
33095;DHT22;19459;53.044;8.910;2023-07-13T03:28:30;14.90;99.90
33095;DHT22;19459;53.044;8.910;2023-07-13T03:31:17;14.90;99.90
33095;DHT22;19459;53.044;8.910;2023-07-13T03:33:45;15.00;99.90
33095;DHT22;19459;53.044;8.910;2023-07-13T03:36:15;15.00;99.90
33095;DHT22;19459;53.044;8.910;2023-07-13T03:38:55;15.00;99.90
33095;DHT22;19459;53.044;8.910;2023-07-13T03:41:24;15.00;99.90
33095;DHT22;19459;53.044;8.910;2023-07-13T03:43:50;15.00;99.90
33095;DHT22;19459;53.044;8.910;2023-07-13T03:46:17;15.00;99.90
33095;DHT22;19459;53.044;8.910;2023-07-13T03:48:44;15.00;99.90
33095;DHT22;19459;53.044;8.910;2023-07-13T03:51:12;15.00;99.90
33095;DHT22;19459;53.044;8.910;2023-07-13T03:53:41;15.00;99.90
33095;DHT22;19459;53.044;8.910;2023-07-13T03:56:08;15.10;99.90
33095;DHT22;19459;53.044;8.910;2023-07-13T03:58:37;15.20;99.90
33095;DHT22;19459;53.044;8.910;2023-07-13T04:01:07;15.20;99.90
33095;DHT22;19459;53.044;8.910;2023-07-13T04:03:33;15.20;99.90
33095;DHT22;19459;53.044;8.910;2023-07-13T04:06:01;15.30;99.90
33095;DHT22;19459;53.044;8.910;2023-07-13T04:08:34;15.30;99.90
33095;DHT22;19459;53.044;8.910;2023-07-13T04:11:02;15.30;99.90
33095;DHT22;19459;53.044;8.910;2023-07-13T04:13:29;15.20;99.90
33095;DHT22;19459;53.044;8.910;2023-07-13T04:15:55;15.30;99.90
33095;DHT22;19459;53.044;8.910;2023-07-13T04:18:21;15.30;99.90
33095;DHT22;19459;53.044;8.910;2023-07-13T04:20:48;15.20;99.90
33095;DHT22;19459;53.044;8.910;2023-07-13T04:23:15;15.30;99.90
33095;DHT22;19459;53.044;8.910;2023-07-13T04:25:45;15.30;99.90
33095;DHT22;19459;53.044;8.910;2023-07-13T04:28:15;15.30;99.90
33095;DHT22;19459;53.044;8.910;2023-07-13T04:30:43;15.30;99.90
33095;DHT22;19459;53.044;8.910;2023-07-13T04:33:09;15.30;99.90
33095;DHT22;19459;53.044;8.910;2023-07-13T04:35:35;15.30;99.90
33095;DHT22;19459;53.044;8.910;2023-07-13T04:38:01;15.40;99.90
33095;DHT22;19459;53.044;8.910;2023-07-13T04:40:28;15.40;99.90
33095;DHT22;19459;53.044;8.910;2023-07-13T04:42:54;15.40;99.90
33095;DHT22;19459;53.044;8.910;2023-07-13T04:45:20;15.40;99.90
33095;DHT22;19459;53.044;8.910;2023-07-13T04:47:46;15.50;99.90
33095;DHT22;19459;53.044;8.910;2023-07-13T04:50:14;15.50;99.90
33095;DHT22;19459;53.044;8.910;2023-07-13T04:52:44;15.50;99.90
33095;DHT22;19459;53.044;8.910;2023-07-13T04:55:10;15.50;99.90
33095;DHT22;19459;53.044;8.910;2023-07-13T04:57:36;15.50;99.90
33095;DHT22;19459;53.044;8.910;2023-07-13T05:00:03;15.60;99.90
33095;DHT22;19459;53.044;8.910;2023-07-13T05:02:34;15.70;99.90
33095;DHT22;19459;53.044;8.910;2023-07-13T05:05:02;15.70;99.90
33095;DHT22;19459;53.044;8.910;2023-07-13T05:07:29;15.70;99.90
33095;DHT22;19459;53.044;8.910;2023-07-13T05:09:55;15.70;99.90
33095;DHT22;19459;53.044;8.910;2023-07-13T05:12:21;15.70;99.90
33095;DHT22;19459;53.044;8.910;2023-07-13T05:14:47;15.80;99.90
33095;DHT22;19459;53.044;8.910;2023-07-13T05:17:14;15.80;99.90
33095;DHT22;19459;53.044;8.910;2023-07-13T05:19:40;15.90;99.90
33095;DHT22;19459;53.044;8.910;2023-07-13T05:22:06;15.90;99.90
33095;DHT22;19459;53.044;8.910;2023-07-13T05:24:32;15.90;99.90
33095;DHT22;19459;53.044;8.910;2023-07-13T05:26:57;16.00;99.90
33095;DHT22;19459;53.044;8.910;2023-07-13T05:29:23;16.00;99.90
33095;DHT22;19459;53.044;8.910;2023-07-13T05:31:50;15.90;99.90
33095;DHT22;19459;53.044;8.910;2023-07-13T05:34:16;15.90;99.90
33095;DHT22;19459;53.044;8.910;2023-07-13T05:36:42;16.00;99.90
33095;DHT22;19459;53.044;8.910;2023-07-13T05:39:09;16.00;99.90
33095;DHT22;19459;53.044;8.910;2023-07-13T05:41:35;16.20;99.90
33095;DHT22;19459;53.044;8.910;2023-07-13T05:44:01;16.20;99.90
33095;DHT22;19459;53.044;8.910;2023-07-13T05:46:27;16.30;99.90
33095;DHT22;19459;53.044;8.910;2023-07-13T05:48:53;16.40;99.90
33095;DHT22;19459;53.044;8.910;2023-07-13T05:51:18;16.40;99.90
33095;DHT22;19459;53.044;8.910;2023-07-13T05:53:44;16.40;99.90
33095;DHT22;19459;53.044;8.910;2023-07-13T05:56:10;16.40;99.90
33095;DHT22;19459;53.044;8.910;2023-07-13T05:58:37;16.30;99.90
33095;DHT22;19459;53.044;8.910;2023-07-13T06:01:10;16.40;99.90
33095;DHT22;19459;53.044;8.910;2023-07-13T06:03:38;16.30;99.90
33095;DHT22;19459;53.044;8.910;2023-07-13T06:06:09;16.30;99.90
33095;DHT22;19459;53.044;8.910;2023-07-13T06:08:35;16.30;99.90
33095;DHT22;19459;53.044;8.910;2023-07-13T06:11:17;16.20;99.90
33095;DHT22;19459;53.044;8.910;2023-07-13T06:13:45;16.20;99.90
33095;DHT22;19459;53.044;8.910;2023-07-13T06:16:12;16.20;99.90
33095;DHT22;19459;53.044;8.910;2023-07-13T06:18:39;16.30;99.90
33095;DHT22;19459;53.044;8.910;2023-07-13T06:21:18;16.30;99.90
33095;DHT22;19459;53.044;8.910;2023-07-13T06:23:46;16.40;99.90
33095;DHT22;19459;53.044;8.910;2023-07-13T06:26:13;16.50;99.90
33095;DHT22;19459;53.044;8.910;2023-07-13T06:28:39;16.70;99.90
33095;DHT22;19459;53.044;8.910;2023-07-13T06:31:09;16.90;99.90
33095;DHT22;19459;53.044;8.910;2023-07-13T06:33:37;17.00;99.90
33095;DHT22;19459;53.044;8.910;2023-07-13T06:36:04;17.20;99.90
33095;DHT22;19459;53.044;8.910;2023-07-13T06:38:31;17.40;99.90
33095;DHT22;19459;53.044;8.910;2023-07-13T06:40:57;17.50;99.90
33095;DHT22;19459;53.044;8.910;2023-07-13T06:43:23;17.50;99.90
33095;DHT22;19459;53.044;8.910;2023-07-13T06:45:51;17.40;99.90
33095;DHT22;19459;53.044;8.910;2023-07-13T06:48:20;17.30;99.90
33095;DHT22;19459;53.044;8.910;2023-07-13T06:50:47;17.50;99.90
33095;DHT22;19459;53.044;8.910;2023-07-13T06:53:15;17.50;99.90
33095;DHT22;19459;53.044;8.910;2023-07-13T06:55:43;17.60;99.90
33095;DHT22;19459;53.044;8.910;2023-07-13T06:58:09;17.70;99.90
33095;DHT22;19459;53.044;8.910;2023-07-13T07:00:34;17.90;99.90
33095;DHT22;19459;53.044;8.910;2023-07-13T07:03:00;18.00;99.90
33095;DHT22;19459;53.044;8.910;2023-07-13T07:05:26;18.00;99.90
33095;DHT22;19459;53.044;8.910;2023-07-13T07:07:53;18.10;99.90
33095;DHT22;19459;53.044;8.910;2023-07-13T07:10:20;18.30;99.90
33095;DHT22;19459;53.044;8.910;2023-07-13T07:12:46;18.30;99.90
33095;DHT22;19459;53.044;8.910;2023-07-13T07:15:34;18.50;99.90
33095;DHT22;19459;53.044;8.910;2023-07-13T07:18:00;18.60;99.90
33095;DHT22;19459;53.044;8.910;2023-07-13T07:20:25;18.70;99.90
33095;DHT22;19459;53.044;8.910;2023-07-13T07:22:52;18.80;99.90
33095;DHT22;19459;53.044;8.910;2023-07-13T07:25:24;18.90;99.90
33095;DHT22;19459;53.044;8.910;2023-07-13T07:27:58;19.00;99.90
33095;DHT22;19459;53.044;8.910;2023-07-13T07:30:27;19.10;99.90
33095;DHT22;19459;53.044;8.910;2023-07-13T07:32:53;19.30;99.90
33095;DHT22;19459;53.044;8.910;2023-07-13T07:35:19;19.30;99.90
33095;DHT22;19459;53.044;8.910;2023-07-13T07:37:45;19.50;99.90
33095;DHT22;19459;53.044;8.910;2023-07-13T07:40:11;19.40;99.90
33095;DHT22;19459;53.044;8.910;2023-07-13T07:42:37;19.40;99.90
33095;DHT22;19459;53.044;8.910;2023-07-13T07:45:03;19.40;99.90
33095;DHT22;19459;53.044;8.910;2023-07-13T07:47:29;19.60;99.90
33095;DHT22;19459;53.044;8.910;2023-07-13T07:49:55;19.80;99.90
33095;DHT22;19459;53.044;8.910;2023-07-13T07:52:21;19.80;99.90
33095;DHT22;19459;53.044;8.910;2023-07-13T07:54:47;19.70;99.90
33095;DHT22;19459;53.044;8.910;2023-07-13T07:57:12;19.60;99.90
33095;DHT22;19459;53.044;8.910;2023-07-13T07:59:38;19.80;99.90
33095;DHT22;19459;53.044;8.910;2023-07-13T08:02:04;19.80;99.90
33095;DHT22;19459;53.044;8.910;2023-07-13T08:04:30;20.10;99.90
33095;DHT22;19459;53.044;8.910;2023-07-13T08:06:56;20.10;99.90
33095;DHT22;19459;53.044;8.910;2023-07-13T08:09:22;20.10;99.90
33095;DHT22;19459;53.044;8.910;2023-07-13T08:11:48;20.20;99.90
33095;DHT22;19459;53.044;8.910;2023-07-13T08:14:14;20.30;99.90
33095;DHT22;19459;53.044;8.910;2023-07-13T08:16:41;20.60;99.90
33095;DHT22;19459;53.044;8.910;2023-07-13T08:19:07;20.80;99.90
33095;DHT22;19459;53.044;8.910;2023-07-13T08:21:33;20.60;99.90
33095;DHT22;19459;53.044;8.910;2023-07-13T08:23:59;20.40;99.90
33095;DHT22;19459;53.044;8.910;2023-07-13T08:26:25;20.30;99.90
33095;DHT22;19459;53.044;8.910;2023-07-13T08:28:50;20.30;99.90
33095;DHT22;19459;53.044;8.910;2023-07-13T08:31:16;20.50;99.90
33095;DHT22;19459;53.044;8.910;2023-07-13T08:33:42;20.70;99.90
33095;DHT22;19459;53.044;8.910;2023-07-13T08:36:08;20.70;99.90
33095;DHT22;19459;53.044;8.910;2023-07-13T08:38:33;20.70;99.90
33095;DHT22;19459;53.044;8.910;2023-07-13T08:40:59;20.60;99.90
33095;DHT22;19459;53.044;8.910;2023-07-13T08:43:32;20.70;99.90
33095;DHT22;19459;53.044;8.910;2023-07-13T08:46:13;20.70;99.90
33095;DHT22;19459;53.044;8.910;2023-07-13T08:49:04;20.80;99.90
33095;DHT22;19459;53.044;8.910;2023-07-13T08:51:45;20.90;99.90
33095;DHT22;19459;53.044;8.910;2023-07-13T08:54:21;20.90;99.90
33095;DHT22;19459;53.044;8.910;2023-07-13T08:56:54;21.00;99.90
33095;DHT22;19459;53.044;8.910;2023-07-13T08:59:27;21.00;99.90
33095;DHT22;19459;53.044;8.910;2023-07-13T09:10:15;21.50;99.90
33095;DHT22;19459;53.044;8.910;2023-07-13T09:15:53;21.60;99.90
33095;DHT22;19459;53.044;8.910;2023-07-13T09:18:32;21.60;99.90
33095;DHT22;19459;53.044;8.910;2023-07-13T09:21:10;21.40;99.90
33095;DHT22;19459;53.044;8.910;2023-07-13T09:24:22;21.50;99.90
33095;DHT22;19459;53.044;8.910;2023-07-13T09:27:38;22.00;99.90
33095;DHT22;19459;53.044;8.910;2023-07-13T09:32:42;22.80;99.90
33095;DHT22;19459;53.044;8.910;2023-07-13T09:35:18;23.10;99.90
33095;DHT22;19459;53.044;8.910;2023-07-13T09:37:46;23.20;99.90
33095;DHT22;19459;53.044;8.910;2023-07-13T09:40:36;22.80;99.90
33095;DHT22;19459;53.044;8.910;2023-07-13T09:43:08;22.70;99.90
33095;DHT22;19459;53.044;8.910;2023-07-13T09:45:36;22.80;99.90
33095;DHT22;19459;53.044;8.910;2023-07-13T09:48:10;22.60;99.90
33095;DHT22;19459;53.044;8.910;2023-07-13T09:50:39;22.60;99.90
33095;DHT22;19459;53.044;8.910;2023-07-13T09:53:12;22.30;99.90
33095;DHT22;19459;53.044;8.910;2023-07-13T09:55:41;22.80;99.90
33095;DHT22;19459;53.044;8.910;2023-07-13T09:58:26;23.20;99.90
33095;DHT22;19459;53.044;8.910;2023-07-13T10:01:03;23.30;99.90
33095;DHT22;19459;53.044;8.910;2023-07-13T10:03:39;23.30;99.90
33095;DHT22;19459;53.044;8.910;2023-07-13T10:06:17;23.40;99.90
33095;DHT22;19459;53.044;8.910;2023-07-13T10:08:51;23.30;99.90
33095;DHT22;19459;53.044;8.910;2023-07-13T10:11:36;22.90;99.40
33095;DHT22;19459;53.044;8.910;2023-07-13T10:16:36;23.10;99.90
33095;DHT22;19459;53.044;8.910;2023-07-13T10:19:27;23.10;99.90
33095;DHT22;19459;53.044;8.910;2023-07-13T10:21:59;23.10;99.90
33095;DHT22;19459;53.044;8.910;2023-07-13T10:24:31;22.70;99.90
33095;DHT22;19459;53.044;8.910;2023-07-13T10:27:05;22.50;99.60
33095;DHT22;19459;53.044;8.910;2023-07-13T10:29:39;22.10;99.50
33095;DHT22;19459;53.044;8.910;2023-07-13T10:32:11;21.70;99.90
33095;DHT22;19459;53.044;8.910;2023-07-13T10:34:39;21.80;99.90
33095;DHT22;19459;53.044;8.910;2023-07-13T10:37:07;21.90;99.90
33095;DHT22;19459;53.044;8.910;2023-07-13T10:39:42;22.10;99.90
33095;DHT22;19459;53.044;8.910;2023-07-13T10:42:13;22.50;99.90
33095;DHT22;19459;53.044;8.910;2023-07-13T10:44:41;22.80;99.00
33095;DHT22;19459;53.044;8.910;2023-07-13T10:47:15;22.40;98.40
33095;DHT22;19459;53.044;8.910;2023-07-13T10:49:44;22.30;97.90
33095;DHT22;19459;53.044;8.910;2023-07-13T10:52:42;22.20;98.50
33095;DHT22;19459;53.044;8.910;2023-07-13T10:55:40;21.90;99.60
33095;DHT22;19459;53.044;8.910;2023-07-13T10:58:19;21.50;99.90
33095;DHT22;19459;53.044;8.910;2023-07-13T11:03:46;20.70;99.90
33095;DHT22;19459;53.044;8.910;2023-07-13T11:06:37;20.50;99.90
33095;DHT22;19459;53.044;8.910;2023-07-13T11:09:34;20.50;99.90
33095;DHT22;19459;53.044;8.910;2023-07-13T11:25:37;18.60;99.90
33095;DHT22;19459;53.044;8.910;2023-07-13T11:28:14;18.20;99.90
33095;DHT22;19459;53.044;8.910;2023-07-13T11:30:49;18.10;99.90
33095;DHT22;19459;53.044;8.910;2023-07-13T11:36:13;17.80;99.90
33095;DHT22;19459;53.044;8.910;2023-07-13T11:38:42;17.80;99.90
33095;DHT22;19459;53.044;8.910;2023-07-13T11:41:19;17.70;99.90
33095;DHT22;19459;53.044;8.910;2023-07-13T11:43:50;17.60;99.90
33095;DHT22;19459;53.044;8.910;2023-07-13T11:46:25;17.80;99.90
33095;DHT22;19459;53.044;8.910;2023-07-13T11:48:53;17.90;99.90
33095;DHT22;19459;53.044;8.910;2023-07-13T11:51:26;17.90;99.90
33095;DHT22;19459;53.044;8.910;2023-07-13T11:53:55;17.80;99.90
33095;DHT22;19459;53.044;8.910;2023-07-13T11:56:23;17.80;99.90
33095;DHT22;19459;53.044;8.910;2023-07-13T11:58:53;17.60;99.90
33095;DHT22;19459;53.044;8.910;2023-07-13T12:01:23;17.50;99.90
33095;DHT22;19459;53.044;8.910;2023-07-13T12:03:52;17.60;99.90
33095;DHT22;19459;53.044;8.910;2023-07-13T12:08:57;17.70;99.90
33095;DHT22;19459;53.044;8.910;2023-07-13T12:11:24;17.50;99.90
33095;DHT22;19459;53.044;8.910;2023-07-13T12:13:50;17.30;99.90
33095;DHT22;19459;53.044;8.910;2023-07-13T12:16:29;17.20;99.90
33095;DHT22;19459;53.044;8.910;2023-07-13T12:18:59;17.20;99.90
33095;DHT22;19459;53.044;8.910;2023-07-13T12:21:34;17.10;99.90
33095;DHT22;19459;53.044;8.910;2023-07-13T12:24:03;17.00;99.90
33095;DHT22;19459;53.044;8.910;2023-07-13T12:26:30;16.80;99.90
33095;DHT22;19459;53.044;8.910;2023-07-13T12:29:01;16.90;99.90
33095;DHT22;19459;53.044;8.910;2023-07-13T12:31:42;17.00;99.90
33095;DHT22;19459;53.044;8.910;2023-07-13T12:34:18;17.10;99.90
33095;DHT22;19459;53.044;8.910;2023-07-13T12:36:47;17.10;99.90
33095;DHT22;19459;53.044;8.910;2023-07-13T12:41:46;16.80;99.90
33095;DHT22;19459;53.044;8.910;2023-07-13T12:44:29;16.60;99.90
33095;DHT22;19459;53.044;8.910;2023-07-13T12:47:03;16.60;99.90
33095;DHT22;19459;53.044;8.910;2023-07-13T12:49:33;16.50;99.90
33095;DHT22;19459;53.044;8.910;2023-07-13T12:52:03;16.60;99.90
33095;DHT22;19459;53.044;8.910;2023-07-13T12:54:30;16.70;99.90
33095;DHT22;19459;53.044;8.910;2023-07-13T12:56:58;17.00;99.90
33095;DHT22;19459;53.044;8.910;2023-07-13T12:59:29;17.10;99.90
33095;DHT22;19459;53.044;8.910;2023-07-13T13:01:59;17.30;99.90
33095;DHT22;19459;53.044;8.910;2023-07-13T13:04:26;17.40;99.90
33095;DHT22;19459;53.044;8.910;2023-07-13T13:07:01;17.60;99.90
33095;DHT22;19459;53.044;8.910;2023-07-13T13:09:28;17.50;99.90
33095;DHT22;19459;53.044;8.910;2023-07-13T13:11:54;17.70;99.90
33095;DHT22;19459;53.044;8.910;2023-07-13T13:14:20;17.80;99.90
33095;DHT22;19459;53.044;8.910;2023-07-13T13:16:48;17.90;99.90
33095;DHT22;19459;53.044;8.910;2023-07-13T13:19:24;18.50;99.90
33095;DHT22;19459;53.044;8.910;2023-07-13T13:21:54;19.10;99.90
33095;DHT22;19459;53.044;8.910;2023-07-13T13:24:24;19.60;99.90
33095;DHT22;19459;53.044;8.910;2023-07-13T13:26:53;19.60;99.90
33095;DHT22;19459;53.044;8.910;2023-07-13T13:29:23;19.80;99.90
33095;DHT22;19459;53.044;8.910;2023-07-13T13:31:50;20.00;99.90
33095;DHT22;19459;53.044;8.910;2023-07-13T13:34:17;20.00;99.90
33095;DHT22;19459;53.044;8.910;2023-07-13T13:36:45;20.40;99.90
33095;DHT22;19459;53.044;8.910;2023-07-13T13:39:24;20.50;99.90
33095;DHT22;19459;53.044;8.910;2023-07-13T13:41:58;20.20;99.90
33095;DHT22;19459;53.044;8.910;2023-07-13T13:44:24;19.70;99.90
33095;DHT22;19459;53.044;8.910;2023-07-13T13:46:54;19.80;99.90
33095;DHT22;19459;53.044;8.910;2023-07-13T13:49:23;19.70;99.90
33095;DHT22;19459;53.044;8.910;2023-07-13T13:51:53;19.40;99.90
33095;DHT22;19459;53.044;8.910;2023-07-13T13:54:21;19.40;99.90
33095;DHT22;19459;53.044;8.910;2023-07-13T13:56:49;19.50;99.90
33095;DHT22;19459;53.044;8.910;2023-07-13T13:59:16;19.50;99.90
33095;DHT22;19459;53.044;8.910;2023-07-13T14:01:44;19.70;99.90
33095;DHT22;19459;53.044;8.910;2023-07-13T14:04:17;19.70;99.90
33095;DHT22;19459;53.044;8.910;2023-07-13T14:06:44;19.70;99.90
33095;DHT22;19459;53.044;8.910;2023-07-13T14:09:12;19.70;99.90
33095;DHT22;19459;53.044;8.910;2023-07-13T14:11:42;19.80;99.90
33095;DHT22;19459;53.044;8.910;2023-07-13T14:14:16;19.90;99.90
33095;DHT22;19459;53.044;8.910;2023-07-13T14:16:44;19.80;99.90
33095;DHT22;19459;53.044;8.910;2023-07-13T14:19:12;20.00;99.90
33095;DHT22;19459;53.044;8.910;2023-07-13T14:21:39;20.40;99.90
33095;DHT22;19459;53.044;8.910;2023-07-13T14:24:06;20.60;99.90
33095;DHT22;19459;53.044;8.910;2023-07-13T14:26:36;20.80;99.90
33095;DHT22;19459;53.044;8.910;2023-07-13T14:29:08;21.10;99.90
33095;DHT22;19459;53.044;8.910;2023-07-13T14:31:37;21.20;99.90
33095;DHT22;19459;53.044;8.910;2023-07-13T14:34:03;21.30;99.90
33095;DHT22;19459;53.044;8.910;2023-07-13T14:36:32;21.10;99.90
33095;DHT22;19459;53.044;8.910;2023-07-13T14:39:04;21.20;99.90
33095;DHT22;19459;53.044;8.910;2023-07-13T14:41:36;21.80;99.90
33095;DHT22;19459;53.044;8.910;2023-07-13T14:44:14;22.30;99.90
33095;DHT22;19459;53.044;8.910;2023-07-13T14:46:41;22.10;99.90
33095;DHT22;19459;53.044;8.910;2023-07-13T14:52:01;22.70;99.90
33095;DHT22;19459;53.044;8.910;2023-07-13T14:54:36;22.90;99.90
33095;DHT22;19459;53.044;8.910;2023-07-13T14:57:16;23.20;99.90
33095;DHT22;19459;53.044;8.910;2023-07-13T14:59:43;23.50;99.90
33095;DHT22;19459;53.044;8.910;2023-07-13T15:04:51;23.90;99.90
33095;DHT22;19459;53.044;8.910;2023-07-13T15:07:17;23.80;99.90
33095;DHT22;19459;53.044;8.910;2023-07-13T15:09:44;23.90;99.90
33095;DHT22;19459;53.044;8.910;2023-07-13T15:12:10;24.20;99.90
33095;DHT22;19459;53.044;8.910;2023-07-13T15:14:36;24.20;99.90
33095;DHT22;19459;53.044;8.910;2023-07-13T15:17:02;23.70;99.90
33095;DHT22;19459;53.044;8.910;2023-07-13T15:19:28;23.40;99.90
33095;DHT22;19459;53.044;8.910;2023-07-13T15:21:55;22.90;99.90
33095;DHT22;19459;53.044;8.910;2023-07-13T15:24:23;22.70;99.90
33095;DHT22;19459;53.044;8.910;2023-07-13T15:26:49;22.20;99.90
33095;DHT22;19459;53.044;8.910;2023-07-13T15:29:16;21.60;99.90
33095;DHT22;19459;53.044;8.910;2023-07-13T15:31:43;21.00;99.90
33095;DHT22;19459;53.044;8.910;2023-07-13T15:34:16;20.60;99.90
33095;DHT22;19459;53.044;8.910;2023-07-13T15:36:43;20.20;99.90
33095;DHT22;19459;53.044;8.910;2023-07-13T15:39:14;19.90;99.90
33095;DHT22;19459;53.044;8.910;2023-07-13T15:41:45;19.60;99.90
33095;DHT22;19459;53.044;8.910;2023-07-13T15:44:32;19.20;99.90
33095;DHT22;19459;53.044;8.910;2023-07-13T15:46:58;19.10;99.90
33095;DHT22;19459;53.044;8.910;2023-07-13T15:49:25;18.90;99.90
33095;DHT22;19459;53.044;8.910;2023-07-13T15:51:51;18.70;99.90
33095;DHT22;19459;53.044;8.910;2023-07-13T15:54:18;18.60;99.90
33095;DHT22;19459;53.044;8.910;2023-07-13T15:56:51;18.50;99.90
33095;DHT22;19459;53.044;8.910;2023-07-13T15:59:18;18.30;99.90
33095;DHT22;19459;53.044;8.910;2023-07-13T16:01:44;18.30;99.90
33095;DHT22;19459;53.044;8.910;2023-07-13T16:04:12;18.40;99.90
33095;DHT22;19459;53.044;8.910;2023-07-13T16:06:40;18.40;99.90
33095;DHT22;19459;53.044;8.910;2023-07-13T16:09:07;18.40;99.90
33095;DHT22;19459;53.044;8.910;2023-07-13T16:11:35;18.20;99.90
33095;DHT22;19459;53.044;8.910;2023-07-13T16:14:04;18.20;99.90
33095;DHT22;19459;53.044;8.910;2023-07-13T16:16:34;18.10;99.90
33095;DHT22;19459;53.044;8.910;2023-07-13T16:19:02;18.10;99.90
33095;DHT22;19459;53.044;8.910;2023-07-13T16:21:49;18.10;99.90
33095;DHT22;19459;53.044;8.910;2023-07-13T16:24:19;18.00;99.90
33095;DHT22;19459;53.044;8.910;2023-07-13T16:26:47;17.70;99.90
33095;DHT22;19459;53.044;8.910;2023-07-13T16:29:19;17.60;99.90
33095;DHT22;19459;53.044;8.910;2023-07-13T16:32:02;17.50;99.90
33095;DHT22;19459;53.044;8.910;2023-07-13T16:34:37;17.50;99.90